sensor_id;sensor_type;location;lat;lon;timestamp;temperature;humidity
18511;DHT22;9384;48.044;11.616;2022-07-29T00:01:17;19.20;99.90
18511;DHT22;9384;48.044;11.616;2022-07-29T00:03:43;19.10;99.90
18511;DHT22;9384;48.044;11.616;2022-07-29T00:06:10;18.90;99.90
18511;DHT22;9384;48.044;11.616;2022-07-29T00:08:37;18.80;99.90
18511;DHT22;9384;48.044;11.616;2022-07-29T00:11:04;18.80;99.90
18511;DHT22;9384;48.044;11.616;2022-07-29T00:13:32;18.70;99.90
18511;DHT22;9384;48.044;11.616;2022-07-29T00:15:59;18.70;99.90
18511;DHT22;9384;48.044;11.616;2022-07-29T00:18:26;18.70;99.90
18511;DHT22;9384;48.044;11.616;2022-07-29T00:20:53;18.70;99.90
18511;DHT22;9384;48.044;11.616;2022-07-29T00:23:20;18.60;99.90
18511;DHT22;9384;48.044;11.616;2022-07-29T00:25:47;18.60;99.90
18511;DHT22;9384;48.044;11.616;2022-07-29T00:28:14;18.60;99.90
18511;DHT22;9384;48.044;11.616;2022-07-29T00:30:42;18.50;99.90
18511;DHT22;9384;48.044;11.616;2022-07-29T00:33:09;18.50;99.90
18511;DHT22;9384;48.044;11.616;2022-07-29T00:35:36;18.50;99.90
18511;DHT22;9384;48.044;11.616;2022-07-29T00:38:12;18.50;99.90
18511;DHT22;9384;48.044;11.616;2022-07-29T00:40:39;18.50;99.90
18511;DHT22;9384;48.044;11.616;2022-07-29T00:43:06;18.40;99.90
18511;DHT22;9384;48.044;11.616;2022-07-29T00:45:33;18.40;99.90
18511;DHT22;9384;48.044;11.616;2022-07-29T00:48:02;18.40;99.90
18511;DHT22;9384;48.044;11.616;2022-07-29T00:50:31;18.40;99.90
18511;DHT22;9384;48.044;11.616;2022-07-29T00:52:58;18.50;99.90
18511;DHT22;9384;48.044;11.616;2022-07-29T00:55:25;18.50;99.90
18511;DHT22;9384;48.044;11.616;2022-07-29T00:57:52;18.40;99.90
18511;DHT22;9384;48.044;11.616;2022-07-29T01:00:21;18.40;99.90
18511;DHT22;9384;48.044;11.616;2022-07-29T01:02:49;18.40;99.90
18511;DHT22;9384;48.044;11.616;2022-07-29T01:05:19;18.40;99.90
18511;DHT22;9384;48.044;11.616;2022-07-29T01:07:48;18.30;99.90
18511;DHT22;9384;48.044;11.616;2022-07-29T01:10:16;18.30;99.90
18511;DHT22;9384;48.044;11.616;2022-07-29T01:12:44;18.30;99.90
18511;DHT22;9384;48.044;11.616;2022-07-29T01:15:11;18.30;99.90
18511;DHT22;9384;48.044;11.616;2022-07-29T01:17:43;18.30;99.90
18511;DHT22;9384;48.044;11.616;2022-07-29T01:20:15;18.30;99.90
18511;DHT22;9384;48.044;11.616;2022-07-29T01:23:18;18.30;99.90
18511;DHT22;9384;48.044;11.616;2022-07-29T01:25:56;18.30;99.90
18511;DHT22;9384;48.044;11.616;2022-07-29T01:28:47;18.30;99.90
18511;DHT22;9384;48.044;11.616;2022-07-29T01:31:19;18.20;99.90
18511;DHT22;9384;48.044;11.616;2022-07-29T01:33:55;18.20;99.90
18511;DHT22;9384;48.044;11.616;2022-07-29T01:36:30;18.20;99.90
18511;DHT22;9384;48.044;11.616;2022-07-29T01:39:02;18.20;99.90
18511;DHT22;9384;48.044;11.616;2022-07-29T01:41:33;18.10;99.90
18511;DHT22;9384;48.044;11.616;2022-07-29T01:44:11;18.10;99.90
18511;DHT22;9384;48.044;11.616;2022-07-29T01:46:56;18.20;99.90
18511;DHT22;9384;48.044;11.616;2022-07-29T01:49:27;18.10;99.90
18511;DHT22;9384;48.044;11.616;2022-07-29T01:51:58;18.10;99.90
18511;DHT22;9384;48.044;11.616;2022-07-29T01:54:32;18.00;99.90
18511;DHT22;9384;48.044;11.616;2022-07-29T01:57:01;18.00;99.90
18511;DHT22;9384;48.044;11.616;2022-07-29T01:59:34;17.90;99.90
18511;DHT22;9384;48.044;11.616;2022-07-29T02:02:03;17.90;99.90
18511;DHT22;9384;48.044;11.616;2022-07-29T02:04:32;17.90;99.90
18511;DHT22;9384;48.044;11.616;2022-07-29T02:07:05;17.90;99.90
18511;DHT22;9384;48.044;11.616;2022-07-29T02:09:35;17.90;99.90
18511;DHT22;9384;48.044;11.616;2022-07-29T02:12:04;18.00;99.90
18511;DHT22;9384;48.044;11.616;2022-07-29T02:14:37;18.00;99.90
18511;DHT22;9384;48.044;11.616;2022-07-29T02:17:04;17.90;99.90
18511;DHT22;9384;48.044;11.616;2022-07-29T02:19:32;17.90;99.90
18511;DHT22;9384;48.044;11.616;2022-07-29T02:22:00;18.00;99.90
18511;DHT22;9384;48.044;11.616;2022-07-29T02:24:28;18.00;99.90
18511;DHT22;9384;48.044;11.616;2022-07-29T02:26:56;18.00;99.90
18511;DHT22;9384;48.044;11.616;2022-07-29T02:29:26;18.00;99.90
18511;DHT22;9384;48.044;11.616;2022-07-29T02:31:55;18.10;99.90
18511;DHT22;9384;48.044;11.616;2022-07-29T02:34:23;18.10;99.90
18511;DHT22;9384;48.044;11.616;2022-07-29T02:36:52;18.00;99.90
18511;DHT22;9384;48.044;11.616;2022-07-29T02:39:19;18.00;99.90
18511;DHT22;9384;48.044;11.616;2022-07-29T02:41:49;18.00;99.90
18511;DHT22;9384;48.044;11.616;2022-07-29T02:44:18;17.90;99.90
18511;DHT22;9384;48.044;11.616;2022-07-29T02:46:52;18.00;99.90
18511;DHT22;9384;48.044;11.616;2022-07-29T02:49:30;18.00;99.90
18511;DHT22;9384;48.044;11.616;2022-07-29T02:52:00;18.00;99.90
18511;DHT22;9384;48.044;11.616;2022-07-29T02:54:33;18.10;99.90
18511;DHT22;9384;48.044;11.616;2022-07-29T02:57:06;18.20;99.90
18511;DHT22;9384;48.044;11.616;2022-07-29T02:59:36;18.20;99.90
18511;DHT22;9384;48.044;11.616;2022-07-29T03:02:08;18.20;99.90
18511;DHT22;9384;48.044;11.616;2022-07-29T03:04:40;18.20;99.90
18511;DHT22;9384;48.044;11.616;2022-07-29T03:07:09;18.20;99.90
18511;DHT22;9384;48.044;11.616;2022-07-29T03:09:37;18.20;99.90
18511;DHT22;9384;48.044;11.616;2022-07-29T03:12:05;18.10;99.90
18511;DHT22;9384;48.044;11.616;2022-07-29T03:14:32;18.10;99.90
18511;DHT22;9384;48.044;11.616;2022-07-29T03:17:00;18.00;99.90
18511;DHT22;9384;48.044;11.616;2022-07-29T03:19:27;18.00;99.90
18511;DHT22;9384;48.044;11.616;2022-07-29T03:21:57;18.10;99.90
18511;DHT22;9384;48.044;11.616;2022-07-29T03:24:28;18.00;99.90
18511;DHT22;9384;48.044;11.616;2022-07-29T03:26:56;18.00;99.90
18511;DHT22;9384;48.044;11.616;2022-07-29T03:29:23;17.90;99.90
18511;DHT22;9384;48.044;11.616;2022-07-29T03:31:50;17.90;99.90
18511;DHT22;9384;48.044;11.616;2022-07-29T03:34:17;17.90;99.90
18511;DHT22;9384;48.044;11.616;2022-07-29T03:36:44;17.80;99.90
18511;DHT22;9384;48.044;11.616;2022-07-29T03:39:16;17.80;99.90
18511;DHT22;9384;48.044;11.616;2022-07-29T03:41:45;17.80;99.90
18511;DHT22;9384;48.044;11.616;2022-07-29T03:44:15;17.70;99.90
18511;DHT22;9384;48.044;11.616;2022-07-29T03:46:43;17.60;99.90
18511;DHT22;9384;48.044;11.616;2022-07-29T03:49:11;17.50;99.90
18511;DHT22;9384;48.044;11.616;2022-07-29T03:51:39;17.30;99.90
18511;DHT22;9384;48.044;11.616;2022-07-29T03:54:06;17.30;99.90
